Mulhall, OK (73063)

4:51 AM CDT on August 28, 2014 (GMT -0500)
NE of town | Change Station
CLOSE
Current Station
Personal Weather Station
Location: Guthrie, OK
Elevation: 1115 ft
Nearby Weather Stations

Elev 1115 ft 35.91 °N, 97.35 °W | Updated 1 second ago

Clear
Clear
74.7 °F
Feels Like 76 °F
N
2.0
Wind Variable Wind from North
Gusts 12.0 mph

Today
High -- | Low -- °F
--% Chance of Precip.
Yesterday
High -- | Low -- °F
Precip. -- in
6:58 AM 8:02 PM
Waxing Crescent, 7% visible
Pressure 29.93 in
Visibility 10.0 miles
Clouds Clear
Heat Index 76 °F
Dew Point 66 °F
Humidity 75%
Rainfall 0.00 in
Snow Depth Not available.
UV 0.0 out of 12
Pollen 10.20 out of 12
Air Quality Not available.
Flu Activity Not available.
METAR KGOK 280853Z AUTO 17006KT 10SM CLR 24/19 A2997 RMK AO2 SLP135 T02390189 58007

More Conditions Fewer Conditions

Pressure 29.93 in
Visibility 10.0 miles
Clouds Clear
Heat Index 76 °F
Dew Point 66 °F
Humidity 75%
Rainfall 0.00 in
Snow Depth Not available.
UV 0.0 out of 12
Pollen 10.20 out of 12
Air Quality Not available.
Flu Activity Not available.
METAR KGOK 280853Z AUTO 17006KT 10SM CLR 24/19 A2997 RMK AO2 SLP135 T02390189 58007

More Conditions Fewer Conditions

10-Day Weather Forecast

Almanac

Astronomy

Aug. 28, 2014 Rise Set
Actual Time 6:58 AM CDT 8:02 PM CDT
Civil Twilight 6:31 AM CDT 8:29 PM CDT
Nautical Twilight 6:00 AM CDT 9:00 PM CDT
Astronomical Twilight 5:27 AM CDT 9:32 PM CDT
Moon 9:45 AM CDT 9:34 PM CDT
Length of Visible Light 13h 57m
Length of Day
13h 04m
Tomorrow will be 2m 9s shorter.
Waxing Crescent, 7% of the Moon is Illuminated
Today
Waxing Crescent
Sep 2
First Quarter
Sep 8
Full
Sep 15
Last Quarter
Sep 24
New

Today's Extremes

State Highs State Lows

Community

WunderPhotos

Upload Photos

1,747,918 photos uploaded!

Nearby

Snow Depth

Station Depth Elevation
No new snow has been reported.

Earthquake Activity

City Distance Mag. Time & Date
Stillwater, Oklahoma 11 miles 3.1 10:44 AM CDT
2014-08-27
Anthony, Kansas 72 miles 2.8 10:11 AM CDT
2014-08-27
Guthrie, Oklahoma 16 miles 3.2 11:05 AM CDT
2014-08-26
Perry, Oklahoma 13 miles 2.5 8:07 AM CDT
2014-08-26
Minimum magnitude displayed is 2.5.

Coastal Water Temperatures

Place Temperature
No Stations Reporting

Nearby Weather Stations